Time,TemperatureF,DewpointF,PressureIn,WindDirection,WindDirectionDegrees,WindSpeedMPH,WindSpeedGustMPH,Humidity,HourlyPrecipIn,Conditions,Clouds,dailyrainin,SoftwareType,DateUTC
2013-04-17 00:02:00,50.0,38.0,-100.00,ENE,75,0.0,2.0,64,-99.99,,,-99.99,,2013-04-17 05:02:00,
2013-04-17 00:12:00,50.0,38.0,-100.00,NE,40,0.0,1.0,62,-99.99,,,-99.99,,2013-04-17 05:12:00,
2013-04-17 00:22:00,50.0,38.0,-100.00,NE,35,0.0,3.0,63,-99.99,,,-99.99,,2013-04-17 05:22:00,
2013-04-17 00:32:00,50.0,38.0,-100.00,NE,35,0.0,3.0,63,-99.99,,,-99.99,,2013-04-17 05:32:00,
2013-04-17 00:42:00,50.0,39.0,-100.00,NE,40,0.0,4.0,65,-99.99,,,-99.99,,2013-04-17 05:42:00,
2013-04-17 00:52:00,50.0,38.0,-100.00,NE,40,4.0,9.0,64,-99.99,,,-99.99,,2013-04-17 05:52:00,
2013-04-17 01:02:00,50.0,38.0,-100.00,NE,40,4.0,9.0,64,-99.99,,,-99.99,,2013-04-17 06:02:00,
2013-04-17 01:12:00,51.0,39.0,-100.00,ENE,65,1.0,11.0,64,-99.99,,,-99.99,,2013-04-17 06:12:00,
2013-04-17 01:22:00,50.0,39.0,-100.00,ENE,65,7.0,14.0,66,-99.99,,,-99.99,,2013-04-17 06:22:00,
2013-04-17 01:32:00,50.0,39.0,-100.00,ENE,65,7.0,14.0,66,-99.99,,,-99.99,,2013-04-17 06:32:00,
2013-04-17 01:42:00,49.0,39.0,-100.00,NE,50,5.0,10.0,68,-99.99,,,-99.99,,2013-04-17 06:42:00,
2013-04-17 01:52:00,48.0,39.0,-100.00,East,95,1.0,17.0,69,-99.99,,,-99.99,,2013-04-17 06:52:00,
2013-04-17 02:02:00,48.0,39.0,-100.00,East,95,1.0,17.0,69,-99.99,,,-99.99,,2013-04-17 07:02:00,
2013-04-17 02:12:00,47.0,39.0,-100.00,NE,35,5.0,14.0,73,-99.99,,,-99.99,,2013-04-17 07:12:00,
2013-04-17 02:22:00,47.0,38.0,-100.00,NE,55,4.0,14.0,71,-99.99,,,-99.99,,2013-04-17 07:22:00,
2013-04-17 02:32:00,47.0,38.0,-100.00,NE,55,4.0,14.0,71,-99.99,,,-99.99,,2013-04-17 07:32:00,
2013-04-17 02:42:00,46.0,37.0,-100.00,NE,55,6.0,13.0,69,-99.99,,,-99.99,,2013-04-17 07:42:00,
2013-04-17 02:52:00,46.0,35.0,-100.00,NE,45,5.0,14.0,66,-99.99,,,-99.99,,2013-04-17 07:52:00,
2013-04-17 03:02:00,46.0,35.0,-100.00,NE,45,5.0,14.0,66,-99.99,,,-99.99,,2013-04-17 08:02:00,
2013-04-17 03:12:00,46.0,36.0,-100.00,East,80,3.0,14.0,68,-99.99,,,-99.99,,2013-04-17 08:12:00,
2013-04-17 03:22:00,45.0,37.0,-100.00,NE,55,6.0,11.0,71,-99.99,,,-99.99,,2013-04-17 08:22:00,
2013-04-17 03:32:00,45.0,37.0,-100.00,NE,55,6.0,11.0,71,-99.99,,,-99.99,,2013-04-17 08:32:00,
2013-04-17 03:42:00,45.0,37.0,-100.00,NE,50,5.0,14.0,72,-99.99,,,-99.99,,2013-04-17 08:42:00,
2013-04-17 03:52:00,45.0,36.0,-100.00,East,85,2.0,12.0,71,-99.99,,,-99.99,,2013-04-17 08:52:00,
2013-04-17 04:02:00,45.0,36.0,-100.00,East,85,2.0,12.0,71,-99.99,,,-99.99,,2013-04-17 09:02:00,
2013-04-17 04:12:00,45.0,36.0,-100.00,NE,35,2.0,14.0,70,-99.99,,,-99.99,,2013-04-17 09:12:00,
2013-04-17 04:22:00,45.0,35.0,-100.00,NE,50,6.0,14.0,69,-99.99,,,-99.99,,2013-04-17 09:22:00,
2013-04-17 04:33:00,45.0,35.0,-100.00,NE,50,6.0,14.0,69,-99.99,,,-99.99,,2013-04-17 09:33:00,
2013-04-17 04:42:00,45.0,34.0,-100.00,East,80,4.0,16.0,67,-99.99,,,-99.99,,2013-04-17 09:42:00,
2013-04-17 04:52:00,45.0,34.0,-100.00,ENE,75,6.0,16.0,65,-99.99,,,-99.99,,2013-04-17 09:52:00,
2013-04-17 05:02:00,45.0,34.0,-100.00,ENE,75,6.0,16.0,65,-99.99,,,-99.99,,2013-04-17 10:02:00,
2013-04-17 05:12:00,45.0,33.0,-100.00,NE,40,5.0,14.0,64,-99.99,,,-99.99,,2013-04-17 10:12:00,
2013-04-17 05:23:00,45.0,33.0,-100.00,NE,55,6.0,16.0,64,-99.99,,,-99.99,,2013-04-17 10:23:00,
2013-04-17 05:32:00,45.0,33.0,-100.00,NE,55,6.0,16.0,64,-99.99,,,-99.99,,2013-04-17 10:32:00,
2013-04-17 05:42:00,45.0,33.0,-100.00,East,95,1.0,16.0,64,-99.99,,,-99.99,,2013-04-17 10:42:00,
2013-04-17 05:53:00,45.0,33.0,-100.00,ENE,75,5.0,14.0,63,-99.99,,,-99.99,,2013-04-17 10:53:00,
2013-04-17 06:02:00,45.0,33.0,-100.00,ENE,75,5.0,14.0,63,-99.99,,,-99.99,,2013-04-17 11:02:00,
2013-04-17 06:12:00,43.0,37.0,-100.00,NW,320,0.0,19.0,77,-99.99,,,-99.99,,2013-04-17 11:12:00,
2013-04-17 06:22:00,43.0,37.0,-100.00,West,280,0.0,9.0,78,-99.99,,,-99.99,,2013-04-17 11:22:00,
2013-04-17 06:32:00,43.0,37.0,-100.00,West,280,0.0,9.0,78,-99.99,,,-99.99,,2013-04-17 11:32:00,
2013-04-17 06:42:00,43.0,37.0,-100.00,NNE,30,7.0,11.0,80,-99.99,,,-99.99,,2013-04-17 11:42:00,
2013-04-17 06:52:00,42.0,36.0,-100.00,NNE,30,11.0,20.0,81,-99.99,,,-99.99,,2013-04-17 11:52:00,
2013-04-17 07:02:00,42.0,36.0,-100.00,NNE,30,11.0,20.0,81,-99.99,,,-99.99,,2013-04-17 12:02:00,
2013-04-17 07:12:00,42.0,36.0,-100.00,NE,35,13.0,21.0,79,-99.99,,,-99.99,,2013-04-17 12:12:00,
2013-04-17 07:22:00,42.0,37.0,-100.00,SE,145,1.0,16.0,82,-99.99,,,-99.99,,2013-04-17 12:22:00,
2013-04-17 07:32:00,42.0,37.0,-100.00,SE,145,1.0,16.0,82,-99.99,,,-99.99,,2013-04-17 12:32:00,
2013-04-17 07:42:00,40.0,38.0,-100.00,East,85,2.0,16.0,92,-99.99,,,-99.99,,2013-04-17 12:42:00,
2013-04-17 07:52:00,40.0,38.0,-100.00,NE,50,7.0,16.0,94,-99.99,,,-99.99,,2013-04-17 12:52:00,
2013-04-17 08:00:00,42.0,37.0,-100.00,ENE,70,9.0,19.0,84,-99.99,,,-99.99,,2013-04-17 13:00:00,
2013-04-17 08:02:00,40.0,38.0,-100.00,NE,50,7.0,16.0,94,-99.99,,,-99.99,,2013-04-17 13:02:00,
2013-04-17 08:12:00,41.0,38.0,-100.00,ENE,75,7.0,19.0,90,-99.99,,,-99.99,,2013-04-17 13:12:00,
2013-04-17 08:22:00,41.0,37.0,-100.00,ESE,110,7.0,16.0,86,-99.99,,,-99.99,,2013-04-17 13:22:00,
2013-04-17 08:32:00,41.0,37.0,-100.00,ESE,110,7.0,16.0,86,-99.99,,,-99.99,,2013-04-17 13:32:00,
2013-04-17 08:42:00,42.0,37.0,-100.00,ENE,70,9.0,19.0,84,-99.99,,,-99.99,,2013-04-17 13:42:00,
2013-04-17 08:52:00,42.0,37.0,-100.00,ENE,70,9.0,19.0,84,-99.99,,,-99.99,,2013-04-17 13:52:00,
2013-04-17 09:12:00,41.0,39.0,-100.00,North,350,9.0,19.0,93,-99.99,,,-99.99,,2013-04-17 14:12:00,
2013-04-17 09:22:00,41.0,39.0,-100.00,NNE,20,9.0,16.0,92,-99.99,,,-99.99,,2013-04-17 14:22:00,
2013-04-17 09:32:00,41.0,39.0,-100.00,NNE,20,9.0,16.0,92,-99.99,,,-99.99,,2013-04-17 14:32:00,
2013-04-17 09:42:00,42.0,39.0,-100.00,NE,45,7.0,14.0,89,-99.99,,,-99.99,,2013-04-17 14:42:00,
2013-04-17 09:52:00,41.0,39.0,-100.00,NE,45,6.0,11.0,92,-99.99,,,-99.99,,2013-04-17 14:52:00,
2013-04-17 10:02:00,41.0,39.0,-100.00,NE,45,6.0,11.0,92,-99.99,,,-99.99,,2013-04-17 15:02:00,
2013-04-17 10:12:00,41.0,39.0,-100.00,NE,35,5.0,19.0,92,-99.99,,,-99.99,,2013-04-17 15:12:00,
2013-04-17 10:22:00,41.0,39.0,-100.00,East,80,6.0,14.0,93,-99.99,,,-99.99,,2013-04-17 15:22:00,
2013-04-17 10:33:00,41.0,39.0,-100.00,East,80,6.0,14.0,93,-99.99,,,-99.99,,2013-04-17 15:33:00,
2013-04-17 10:42:00,42.0,39.0,-100.00,NNE,30,5.0,14.0,92,-99.99,,,-99.99,,2013-04-17 15:42:00,
2013-04-17 10:53:00,42.0,40.0,-100.00,NE,45,4.0,19.0,92,-99.99,,,-99.99,,2013-04-17 15:53:00,
2013-04-17 11:03:00,42.0,40.0,-100.00,NE,45,4.0,19.0,92,-99.99,,,-99.99,,2013-04-17 16:03:00,
2013-04-17 11:12:00,42.0,40.0,-100.00,NE,50,1.0,12.0,91,-99.99,,,-99.99,,2013-04-17 16:12:00,
2013-04-17 11:23:00,43.0,40.0,-100.00,NE,35,4.0,14.0,90,-99.99,,,-99.99,,2013-04-17 16:23:00,
2013-04-17 11:32:00,43.0,40.0,-100.00,NE,35,4.0,14.0,90,-99.99,,,-99.99,,2013-04-17 16:32:00,
2013-04-17 11:42:00,42.0,40.0,-100.00,NNE,15,6.0,15.0,93,-99.99,,,-99.99,,2013-04-17 16:42:00,
2013-04-17 11:52:00,42.0,41.0,-100.00,NE,40,8.0,21.0,95,-99.99,,,-99.99,,2013-04-17 16:52:00,
2013-04-17 12:02:00,42.0,41.0,-100.00,NE,40,8.0,21.0,95,-99.99,,,-99.99,,2013-04-17 17:02:00,
2013-04-17 12:12:00,42.0,41.0,-100.00,ENE,65,5.0,16.0,94,-99.99,,,-99.99,,2013-04-17 17:12:00,
2013-04-17 12:22:00,43.0,41.0,-100.00,ESE,105,4.0,21.0,94,-99.99,,,-99.99,,2013-04-17 17:22:00,
2013-04-17 12:33:00,43.0,41.0,-100.00,ESE,105,4.0,21.0,94,-99.99,,,-99.99,,2013-04-17 17:33:00,
2013-04-17 12:42:00,43.0,41.0,-100.00,NW,305,12.0,21.0,95,-99.99,,,-99.99,,2013-04-17 17:42:00,
2013-04-17 12:52:00,43.0,42.0,-100.00,WNW,295,6.0,20.0,98,-99.99,,,-99.99,,2013-04-17 17:52:00,
2013-04-17 13:02:00,43.0,42.0,-100.00,WNW,295,6.0,20.0,98,-99.99,,,-99.99,,2013-04-17 18:02:00,
2013-04-17 13:12:00,43.0,42.0,-100.00,North,350,8.0,14.0,98,-99.99,,,-99.99,,2013-04-17 18:12:00,
2013-04-17 13:22:00,42.0,42.0,-100.00,WNW,300,18.0,26.0,98,-99.99,,,-99.99,,2013-04-17 18:22:00,
2013-04-17 13:32:00,42.0,42.0,-100.00,WNW,300,18.0,26.0,98,-99.99,,,-99.99,,2013-04-17 18:32:00,
2013-04-17 13:42:00,42.0,41.0,-100.00,NNW,330,10.0,24.0,99,-99.99,,,-99.99,,2013-04-17 18:42:00,
2013-04-17 13:52:00,42.0,42.0,-100.00,NNE,30,8.0,18.0,99,-99.99,,,-99.99,,2013-04-17 18:52:00,
2013-04-17 14:02:00,42.0,42.0,-100.00,NNE,30,8.0,18.0,99,-99.99,,,-99.99,,2013-04-17 19:02:00,
2013-04-17 14:12:00,43.0,43.0,-100.00,NNE,20,10.0,17.0,99,-99.99,,,-99.99,,2013-04-17 19:12:00,
2013-04-17 14:22:00,43.0,43.0,-100.00,NNE,20,4.0,12.0,99,-99.99,,,-99.99,,2013-04-17 19:22:00,
2013-04-17 14:32:00,43.0,43.0,-100.00,NNE,20,4.0,12.0,99,-99.99,,,-99.99,,2013-04-17 19:32:00,
2013-04-17 14:42:00,43.0,43.0,-100.00,NNE,25,5.0,17.0,99,-99.99,,,-99.99,,2013-04-17 19:42:00,
2013-04-17 14:52:00,44.0,43.0,-100.00,NNE,25,9.0,19.0,99,-99.99,,,-99.99,,2013-04-17 19:52:00,
2013-04-17 15:02:00,44.0,43.0,-100.00,NNE,25,9.0,19.0,99,-99.99,,,-99.99,,2013-04-17 20:02:00,
2013-04-17 15:12:00,44.0,43.0,-100.00,South,180,2.0,11.0,97,-99.99,,,-99.99,,2013-04-17 20:12:00,
2013-04-17 15:22:00,44.0,43.0,-100.00,NNE,30,2.0,10.0,96,-99.99,,,-99.99,,2013-04-17 20:22:00,
2013-04-17 15:32:00,44.0,43.0,-100.00,NNE,30,2.0,10.0,96,-99.99,,,-99.99,,2013-04-17 20:32:00,
2013-04-17 15:42:00,44.0,43.0,-100.00,NE,50,1.0,11.0,97,-99.99,,,-99.99,,2013-04-17 20:42:00,
2013-04-17 15:52:00,45.0,44.0,-100.00,SE,140,1.0,9.0,96,-99.99,,,-99.99,,2013-04-17 20:52:00,
2013-04-17 16:02:00,45.0,44.0,-100.00,SE,140,1.0,9.0,96,-99.99,,,-99.99,,2013-04-17 21:02:00,
2013-04-17 16:12:00,45.0,44.0,-100.00,East,100,4.0,11.0,96,-99.99,,,-99.99,,2013-04-17 21:12:00,
2013-04-17 16:22:00,45.0,44.0,-100.00,ENE,75,4.0,12.0,96,-99.99,,,-99.99,,2013-04-17 21:22:00,
2013-04-17 16:33:00,45.0,44.0,-100.00,ENE,75,4.0,12.0,96,-99.99,,,-99.99,,2013-04-17 21:33:00,
2013-04-17 16:42:00,45.0,44.0,-100.00,NE,55,3.0,16.0,95,-99.99,,,-99.99,,2013-04-17 21:42:00,
2013-04-17 16:53:00,45.0,44.0,-100.00,East,90,4.0,11.0,95,-99.99,,,-99.99,,2013-04-17 21:53:00,
2013-04-17 17:02:00,45.0,44.0,-100.00,East,90,4.0,11.0,95,-99.99,,,-99.99,,2013-04-17 22:02:00,
2013-04-17 17:12:00,45.0,44.0,-100.00,NE,35,6.0,16.0,96,-99.99,,,-99.99,,2013-04-17 22:12:00,
2013-04-17 17:22:00,45.0,44.0,-100.00,NE,55,5.0,20.0,97,-99.99,,,-99.99,,2013-04-17 22:22:00,
2013-04-17 17:33:00,45.0,44.0,-100.00,NE,55,5.0,20.0,97,-99.99,,,-99.99,,2013-04-17 22:33:00,
2013-04-17 17:42:00,45.0,44.0,-100.00,NNE,15,2.0,14.0,97,-99.99,,,-99.99,,2013-04-17 22:42:00,
2013-04-17 17:53:00,45.0,45.0,-100.00,East,100,1.0,18.0,97,-99.99,,,-99.99,,2013-04-17 22:53:00,
2013-04-17 18:02:00,45.0,45.0,-100.00,East,100,1.0,18.0,97,-99.99,,,-99.99,,2013-04-17 23:02:00,
2013-04-17 18:12:00,45.0,44.0,-100.00,East,95,2.0,14.0,96,-99.99,,,-99.99,,2013-04-17 23:12:00,
2013-04-17 18:22:00,45.0,44.0,-100.00,ESE,115,1.0,13.0,96,-99.99,,,-99.99,,2013-04-17 23:22:00,
2013-04-17 18:32:00,45.0,44.0,-100.00,ESE,115,1.0,13.0,96,-99.99,,,-99.99,,2013-04-17 23:32:00,
2013-04-17 18:42:00,45.0,45.0,-100.00,ESE,120,7.0,10.0,97,-99.99,,,-99.99,,2013-04-17 23:42:00,
2013-04-17 18:52:00,45.0,45.0,-100.00,East,85,0.0,8.0,98,-99.99,,,-99.99,,2013-04-17 23:52:00,
2013-04-17 19:02:00,45.0,45.0,-100.00,East,85,0.0,8.0,98,-99.99,,,-99.99,,2013-04-18 00:02:00,
2013-04-17 19:12:00,45.0,45.0,-100.00,NE,55,6.0,11.0,98,-99.99,,,-99.99,,2013-04-18 00:12:00,
2013-04-17 19:22:00,45.0,45.0,-100.00,ENE,75,9.0,16.0,98,-99.99,,,-99.99,,2013-04-18 00:22:00,
2013-04-17 19:32:00,45.0,45.0,-100.00,ENE,75,9.0,16.0,98,-99.99,,,-99.99,,2013-04-18 00:32:00,
2013-04-17 19:42:00,45.0,45.0,-100.00,ENE,75,9.0,16.0,98,-99.99,,,-99.99,,2013-04-18 00:42:00,
2013-04-17 19:52:00,45.0,45.0,-100.00,East,95,9.0,21.0,98,-99.99,,,-99.99,,2013-04-18 00:52:00,
2013-04-17 20:02:00,45.0,45.0,-100.00,East,95,9.0,21.0,98,-99.99,,,-99.99,,2013-04-18 01:02:00,
2013-04-17 20:12:00,46.0,45.0,-100.00,ESE,115,10.0,16.0,98,-99.99,,,-99.99,,2013-04-18 01:12:00,
2013-04-17 20:22:00,46.0,45.0,-100.00,ESE,115,10.0,16.0,98,-99.99,,,-99.99,,2013-04-18 01:22:00,
2013-04-17 20:32:00,46.0,45.0,-100.00,ESE,115,10.0,16.0,98,-99.99,,,-99.99,,2013-04-18 01:32:00,
2013-04-17 20:42:00,46.0,46.0,-100.00,East,100,12.0,31.0,98,-99.99,,,-99.99,,2013-04-18 01:42:00,
2013-04-17 20:52:00,46.0,46.0,-100.00,ESE,105,1.0,12.0,98,-99.99,,,-99.99,,2013-04-18 01:52:00,
2013-04-17 21:02:00,46.0,46.0,-100.00,ESE,105,1.0,12.0,98,-99.99,,,-99.99,,2013-04-18 02:02:00,
2013-04-17 21:12:00,47.0,46.0,-100.00,NE,35,2.0,9.0,98,-99.99,,,-99.99,,2013-04-18 02:12:00,
2013-04-17 21:22:00,47.0,47.0,-100.00,NE,50,4.0,6.0,99,-99.99,,,-99.99,,2013-04-18 02:22:00,
2013-04-17 21:32:00,47.0,47.0,-100.00,NE,50,4.0,6.0,99,-99.99,,,-99.99,,2013-04-18 02:32:00,
2013-04-17 21:42:00,47.0,47.0,-100.00,NE,50,4.0,6.0,99,-99.99,,,-99.99,,2013-04-18 02:42:00,
2013-04-17 22:02:00,48.0,48.0,-100.00,East,85,3.0,14.0,99,-99.99,,,-99.99,,2013-04-18 03:02:00,
2013-04-17 22:12:00,48.0,48.0,-100.00,NE,40,6.0,11.0,99,-99.99,,,-99.99,,2013-04-18 03:12:00,
2013-04-17 22:22:00,48.0,48.0,-100.00,East,95,6.0,14.0,99,-99.99,,,-99.99,,2013-04-18 03:22:00,
2013-04-17 22:33:00,48.0,48.0,-100.00,East,95,6.0,14.0,99,-99.99,,,-99.99,,2013-04-18 03:33:00,
2013-04-17 22:43:00,49.0,48.0,-100.00,ENE,75,10.0,18.0,99,-99.99,,,-99.99,,2013-04-18 03:43:00,
2013-04-17 22:53:00,50.0,50.0,-100.00,NW,320,1.0,16.0,99,-99.99,,,-99.99,,2013-04-18 03:53:00,
2013-04-17 23:03:00,50.0,50.0,-100.00,NW,320,1.0,16.0,99,-99.99,,,-99.99,,2013-04-18 04:03:00,
2013-04-17 23:13:00,50.0,50.0,-100.00,NE,40,6.0,13.0,99,-99.99,,,-99.99,,2013-04-18 04:13:00,
2013-04-17 23:23:00,50.0,49.0,-100.00,North,0,2.0,7.0,99,-99.99,,,-99.99,,2013-04-18 04:23:00,
2013-04-17 23:33:00,50.0,49.0,-100.00,North,0,2.0,7.0,99,-99.99,,,-99.99,,2013-04-18 04:33:00,
2013-04-17 23:43:00,53.0,-99.9,-100.00,ENE,60,2.0,9.0,-999,-99.99,,,-99.99,,2013-04-18 04:43:00,
2013-04-17 23:53:00,55.0,55.0,-100.00,ENE,75,8.0,14.0,99,-99.99,,,-99.99,,2013-04-18 04:53:00,